createdAt,value
2022-12-27T00:00:20.427Z,7.30
2022-12-27T00:02:47.422Z,8.43
2022-12-27T00:05:15.569Z,14.93
2022-12-27T00:07:44.250Z,10.70
2022-12-27T00:10:12.111Z,9.63
2022-12-27T00:12:44.014Z,8.00
2022-12-27T00:15:11.108Z,8.63
2022-12-27T00:17:40.991Z,8.63
2022-12-27T00:20:11.749Z,13.20
2022-12-27T00:22:40.154Z,10.37
2022-12-27T00:25:08.040Z,6.50
2022-12-27T00:27:37.539Z,7.93
2022-12-27T00:30:05.957Z,6.93
2022-12-27T00:32:33.049Z,3.60
2022-12-27T00:35:00.176Z,3.70
2022-12-27T00:37:27.414Z,10.90
2022-12-27T00:39:54.348Z,9.93
2022-12-27T00:42:23.402Z,11.53
2022-12-27T00:44:50.597Z,7.20
2022-12-27T00:47:17.516Z,9.10
2022-12-27T00:49:47.390Z,14.07
2022-12-27T00:52:14.477Z,7.53
2022-12-27T00:54:44.111Z,4.37
2022-12-27T00:57:11.096Z,10.30
2022-12-27T00:59:37.932Z,7.23
2022-12-27T01:02:04.958Z,11.60
2022-12-27T01:04:32.056Z,13.23
2022-12-27T01:07:02.334Z,17.73
2022-12-27T01:09:29.339Z,3.77
2022-12-27T01:11:56.341Z,7.97
2022-12-27T01:14:25.535Z,4.33
2022-12-27T01:16:52.508Z,6.00
2022-12-27T01:19:19.564Z,12.67
2022-12-27T01:21:46.580Z,4.50
2022-12-27T01:24:13.541Z,19.03
2022-12-27T01:26:43.025Z,6.30
2022-12-27T01:29:13.089Z,3.20
2022-12-27T01:31:40.324Z,10.10
2022-12-27T01:34:09.466Z,5.03
2022-12-27T01:36:36.479Z,6.03
2022-12-27T01:39:04.017Z,10.63
2022-12-27T01:41:54.175Z,18.50
2022-12-27T01:44:39.324Z,1.93
2022-12-27T01:47:46.182Z,10.00
2022-12-27T01:50:28.591Z,2.67
2022-12-27T01:52:59.822Z,14.73
2022-12-27T01:55:36.055Z,13.60
2022-12-27T01:58:11.313Z,5.93
2022-12-27T02:00:40.211Z,9.40
2022-12-27T02:03:10.827Z,9.27
2022-12-27T02:05:41.719Z,10.73
2022-12-27T02:08:29.091Z,2.63
2022-12-27T02:10:57.288Z,9.00
2022-12-27T02:13:29.295Z,12.07
2022-12-27T02:15:56.358Z,9.53
2022-12-27T02:18:25.799Z,6.90
2022-12-27T02:21:26.200Z,13.97
2022-12-27T02:24:33.198Z,6.57
2022-12-27T02:27:33.653Z,4.10
2022-12-27T02:30:07.624Z,7.80
2022-12-27T02:32:55.090Z,8.37
2022-12-27T02:35:33.694Z,3.93
2022-12-27T02:38:18.138Z,17.87
2022-12-27T02:41:05.400Z,8.13
2022-12-27T02:43:51.966Z,10.40
2022-12-27T02:46:43.022Z,5.67
2022-12-27T02:49:52.542Z,10.87
2022-12-27T02:53:04.150Z,13.60
2022-12-27T02:56:36.805Z,8.20
2022-12-27T02:59:15.602Z,3.13
2022-12-27T03:02:10.099Z,5.23
2022-12-27T03:05:16.147Z,23.00
2022-12-27T03:08:24.017Z,6.93
2022-12-27T03:11:18.182Z,3.57
2022-12-27T03:14:20.743Z,7.40
2022-12-27T03:16:56.240Z,6.47
2022-12-27T03:19:48.363Z,9.00
2022-12-27T03:22:40.292Z,5.67
2022-12-27T03:25:26.329Z,3.60
2022-12-27T03:28:20.685Z,12.93
2022-12-27T03:31:13.968Z,5.37
2022-12-27T03:33:43.223Z,6.47
2022-12-27T03:36:40.100Z,12.83
2022-12-27T03:39:11.485Z,7.60
2022-12-27T03:42:20.649Z,12.60
2022-12-27T03:44:50.114Z,3.50
2022-12-27T03:47:39.709Z,5.83
2022-12-27T03:50:25.401Z,4.93
2022-12-27T03:52:58.395Z,7.57
2022-12-27T03:55:33.444Z,14.13
2022-12-27T03:58:00.889Z,3.73
2022-12-27T04:00:28.057Z,7.30
2022-12-27T04:02:57.819Z,7.20
2022-12-27T04:05:29.302Z,4.30
2022-12-27T04:08:14.602Z,5.80
2022-12-27T04:11:00.164Z,7.60
2022-12-27T04:13:45.856Z,6.83
2022-12-27T04:16:31.043Z,7.50
2022-12-27T04:19:16.810Z,7.77
2022-12-27T04:22:01.999Z,15.63
2022-12-27T04:24:47.300Z,12.33
2022-12-27T04:27:32.730Z,16.53
2022-12-27T04:30:18.010Z,13.70
2022-12-27T04:33:06.519Z,8.60
2022-12-27T04:35:36.034Z,12.43
2022-12-27T04:38:05.484Z,10.43
2022-12-27T04:40:50.754Z,7.27
2022-12-27T04:43:36.122Z,7.50
2022-12-27T04:46:21.789Z,18.33
2022-12-27T04:49:07.017Z,6.83
2022-12-27T04:51:52.451Z,5.63
2022-12-27T04:54:43.814Z,7.80
2022-12-27T04:57:10.810Z,8.23
2022-12-27T04:59:58.555Z,11.63
2022-12-27T05:02:30.393Z,13.07
2022-12-27T05:05:00.479Z,12.07
2022-12-27T05:07:48.293Z,14.80
2022-12-27T05:10:38.469Z,13.20
2022-12-27T05:13:30.825Z,9.03
2022-12-27T05:15:58.148Z,11.10
2022-12-27T05:18:25.106Z,18.40
2022-12-27T05:20:54.725Z,18.77
2022-12-27T05:23:42.391Z,11.80
2022-12-27T05:26:09.613Z,10.73
2022-12-27T05:28:36.460Z,9.23
2022-12-27T05:31:03.425Z,8.43
2022-12-27T05:33:33.385Z,7.50
2022-12-27T05:36:00.882Z,7.70
2022-12-27T05:38:29.999Z,13.13
2022-12-27T05:41:04.152Z,9.83
2022-12-27T05:43:35.098Z,8.57
2022-12-27T05:46:14.258Z,14.00
2022-12-27T05:48:42.007Z,4.70
2022-12-27T05:51:12.635Z,7.93
2022-12-27T05:53:40.361Z,7.50
2022-12-27T05:56:11.342Z,8.97
2022-12-27T05:58:38.314Z,11.93
2022-12-27T06:01:10.563Z,17.47
2022-12-27T06:03:38.038Z,8.27
2022-12-27T06:06:08.469Z,6.70
2022-12-27T06:08:36.734Z,9.83
2022-12-27T06:11:10.449Z,11.30
2022-12-27T06:13:41.948Z,13.73
2022-12-27T06:16:12.275Z,9.43
2022-12-27T06:18:41.480Z,7.57
2022-12-27T06:21:17.619Z,5.17
2022-12-27T06:23:45.895Z,7.60
2022-12-27T06:26:28.073Z,9.70
2022-12-27T06:28:57.303Z,8.20
2022-12-27T06:31:27.892Z,7.83
2022-12-27T06:33:57.782Z,9.00
2022-12-27T06:36:32.634Z,13.70
2022-12-27T06:39:00.886Z,11.30
2022-12-27T06:41:27.886Z,6.63
2022-12-27T06:44:00.939Z,4.97
2022-12-27T06:46:30.083Z,12.20
2022-12-27T06:48:57.582Z,6.20
2022-12-27T06:51:26.569Z,7.90
2022-12-27T06:53:53.531Z,10.70
2022-12-27T06:56:25.077Z,8.00
2022-12-27T06:58:52.193Z,12.57
2022-12-27T07:01:27.394Z,6.40
2022-12-27T07:03:59.526Z,11.43
2022-12-27T07:06:36.024Z,8.20
2022-12-27T07:09:06.066Z,5.07
2022-12-27T07:11:39.442Z,15.97
2022-12-27T07:14:10.263Z,8.30
2022-12-27T07:16:37.599Z,9.63
2022-12-27T07:19:07.128Z,11.53
2022-12-27T07:21:37.152Z,11.50
2022-12-27T07:24:09.322Z,12.77
2022-12-27T07:26:36.275Z,6.87
2022-12-27T07:29:05.719Z,17.53
2022-12-27T07:31:35.783Z,10.23
2022-12-27T07:34:06.386Z,7.60
2022-12-27T07:36:37.549Z,5.80
2022-12-27T07:39:05.841Z,9.90
2022-12-27T07:41:35.876Z,11.20
2022-12-27T07:44:03.921Z,4.47
2022-12-27T07:46:31.196Z,12.13
2022-12-27T07:48:58.743Z,11.13
2022-12-27T07:51:27.028Z,10.80
2022-12-27T07:53:54.508Z,9.00
2022-12-27T07:56:27.325Z,15.10
2022-12-27T07:58:57.335Z,13.87
2022-12-27T08:01:28.066Z,15.10
2022-12-27T08:03:55.563Z,12.47
2022-12-27T08:06:23.903Z,13.90
2022-12-27T08:08:55.584Z,6.67
2022-12-27T08:11:26.714Z,5.10
2022-12-27T08:13:53.935Z,20.83
2022-12-27T08:16:24.911Z,11.70
2022-12-27T08:18:56.334Z,10.53
2022-12-27T08:21:26.304Z,16.67
2022-12-27T08:24:02.212Z,9.23
2022-12-27T08:26:32.124Z,7.90
2022-12-27T08:29:01.194Z,9.80
2022-12-27T08:31:30.314Z,6.17
2022-12-27T08:33:59.623Z,11.13
2022-12-27T08:39:13.606Z,12.23
2022-12-27T08:41:40.673Z,9.47
2022-12-27T08:44:12.575Z,4.50
2022-12-27T08:46:39.714Z,10.73
2022-12-27T08:49:06.734Z,11.20
2022-12-27T08:51:41.068Z,10.13
2022-12-27T08:54:11.550Z,9.20
2022-12-27T08:56:38.495Z,7.60
2022-12-27T08:59:05.466Z,10.07
2022-12-27T09:01:32.862Z,3.93
2022-12-27T09:03:59.836Z,7.40
2022-12-27T09:06:28.889Z,7.80
2022-12-27T09:08:59.683Z,4.57
2022-12-27T09:11:30.656Z,8.27
2022-12-27T09:14:01.394Z,8.97
2022-12-27T09:16:29.865Z,11.70
2022-12-27T09:18:59.254Z,4.07
2022-12-27T09:21:29.207Z,10.97
2022-12-27T09:23:59.119Z,6.37
2022-12-27T09:26:29.525Z,6.17
2022-12-27T09:29:00.080Z,9.97
2022-12-27T09:31:28.304Z,14.13
2022-12-27T09:33:55.822Z,6.23
2022-12-27T09:36:30.809Z,9.80
2022-12-27T09:38:59.055Z,11.77
2022-12-27T09:45:17.870Z,9.97
2022-12-27T09:48:09.424Z,12.47
2022-12-27T09:50:55.874Z,14.83
2022-12-27T09:53:48.701Z,8.20
2022-12-27T09:56:35.693Z,5.50
2022-12-27T09:59:24.115Z,7.03
2022-12-27T10:01:51.653Z,11.87
2022-12-27T10:04:21.712Z,12.70
2022-12-27T10:07:03.797Z,12.57
2022-12-27T10:10:29.433Z,4.77
2022-12-27T10:13:23.705Z,4.67
2022-12-27T10:16:18.013Z,8.50
2022-12-27T10:19:13.359Z,12.47
2022-12-27T10:22:17.488Z,13.80
2022-12-27T10:24:57.337Z,17.43
2022-12-27T10:27:31.939Z,5.27
2022-12-27T10:30:00.316Z,6.40
2022-12-27T10:32:30.273Z,14.70
2022-12-27T10:35:01.326Z,6.90
2022-12-27T10:37:28.741Z,7.90
2022-12-27T10:40:32.487Z,8.67
2022-12-27T10:43:18.444Z,9.57
2022-12-27T10:45:45.593Z,10.90
2022-12-27T10:48:25.120Z,12.73
2022-12-27T10:50:59.355Z,5.63
2022-12-27T10:53:40.609Z,10.50
2022-12-27T10:56:17.500Z,9.20
2022-12-27T10:58:58.862Z,12.60
2022-12-27T11:01:32.469Z,12.63
2022-12-27T11:04:24.087Z,17.53
2022-12-27T11:07:00.117Z,14.83
2022-12-27T11:09:41.512Z,6.67
2022-12-27T11:12:18.620Z,10.07
2022-12-27T11:15:25.080Z,3.40
2022-12-27T11:18:02.260Z,8.70
2022-12-27T11:20:49.740Z,6.00
2022-12-27T11:23:22.647Z,6.80
2022-12-27T11:25:58.220Z,14.33
2022-12-27T11:28:50.923Z,10.13
2022-12-27T11:31:35.868Z,9.50
2022-12-27T11:34:16.012Z,7.30
2022-12-27T11:36:48.306Z,9.43
2022-12-27T11:39:43.034Z,3.83
2022-12-27T11:42:38.482Z,12.53
2022-12-27T11:45:49.603Z,9.93
2022-12-27T11:48:45.265Z,6.90
2022-12-27T11:51:40.236Z,8.20
2022-12-27T11:54:57.129Z,7.17
2022-12-27T11:57:42.598Z,11.37
2022-12-27T12:00:23.651Z,11.40
2022-12-27T12:03:27.898Z,10.50
2022-12-27T12:06:15.869Z,15.83
2022-12-27T12:09:10.391Z,8.43
2022-12-27T12:12:01.102Z,13.80
2022-12-27T12:14:44.248Z,5.60
2022-12-27T12:17:41.769Z,14.07
2022-12-27T12:20:50.336Z,9.07
2022-12-27T12:23:26.742Z,19.00
2022-12-27T12:26:16.104Z,12.00
2022-12-27T12:29:06.517Z,18.93
2022-12-27T12:31:55.904Z,5.50
2022-12-27T12:34:56.575Z,10.03
2022-12-27T12:38:00.638Z,12.10
2022-12-27T12:41:11.032Z,14.97
2022-12-27T12:43:43.667Z,11.20
2022-12-27T12:46:46.069Z,7.60
2022-12-27T12:49:32.722Z,21.97
2022-12-27T12:52:24.595Z,12.53
2022-12-27T12:55:19.953Z,12.10
2022-12-27T12:58:08.022Z,12.77
2022-12-27T13:00:49.637Z,11.03
2022-12-27T13:04:01.960Z,27.40
2022-12-27T13:07:11.862Z,3.10
2022-12-27T13:10:17.001Z,8.23
2022-12-27T13:13:20.327Z,14.50
2022-12-27T13:16:21.741Z,17.50
2022-12-27T13:19:14.694Z,10.70
2022-12-27T13:22:19.391Z,9.60
2022-12-27T13:25:21.055Z,18.00
2022-12-27T13:28:13.993Z,10.47
2022-12-27T13:31:09.674Z,19.77
2022-12-27T13:34:16.295Z,11.50
2022-12-27T13:37:24.853Z,17.13
2022-12-27T13:40:25.883Z,14.27
2022-12-27T13:43:40.834Z,8.40
2022-12-27T13:46:33.168Z,19.43
2022-12-27T13:49:40.571Z,19.30
2022-12-27T13:52:59.731Z,10.33
2022-12-27T13:55:45.146Z,14.33
2022-12-27T13:58:20.825Z,7.80
2022-12-27T14:01:24.851Z,10.87
2022-12-27T14:04:28.728Z,6.00
2022-12-27T14:07:21.795Z,4.70
2022-12-27T14:10:15.292Z,7.57
2022-12-27T14:12:48.062Z,19.50
2022-12-27T14:15:22.738Z,20.87
2022-12-27T14:18:08.379Z,13.93
2022-12-27T14:20:51.479Z,11.40
2022-12-27T14:23:56.005Z,11.83
2022-12-27T14:26:48.437Z,12.20
2022-12-27T14:29:45.131Z,19.10
2022-12-27T14:32:33.613Z,5.90
2022-12-27T14:35:47.086Z,7.93
2022-12-27T14:38:39.756Z,18.53
2022-12-27T14:41:29.350Z,9.20
2022-12-27T14:44:29.568Z,6.60
2022-12-27T14:47:45.750Z,17.83
2022-12-27T14:50:40.051Z,8.63
2022-12-27T14:53:37.024Z,11.87
2022-12-27T14:56:24.988Z,22.83
2022-12-27T14:59:09.642Z,18.40
2022-12-27T15:02:20.631Z,14.23
2022-12-27T15:05:23.575Z,12.73
2022-12-27T15:08:12.110Z,15.77
2022-12-27T15:10:54.001Z,17.03
2022-12-27T15:13:54.806Z,13.23
2022-12-27T15:16:52.634Z,14.77
2022-12-27T15:19:59.556Z,12.60
2022-12-27T15:22:38.227Z,17.30
2022-12-27T15:25:38.372Z,22.60
2022-12-27T15:28:52.542Z,8.80
2022-12-27T15:31:19.297Z,11.57
2022-12-27T15:34:36.302Z,19.77
2022-12-27T15:37:03.542Z,15.90
2022-12-27T15:39:47.911Z,12.90
2022-12-27T15:42:44.825Z,13.90
2022-12-27T15:45:48.600Z,12.87
2022-12-27T15:48:51.589Z,8.50
2022-12-27T15:51:45.810Z,12.33
2022-12-27T15:54:30.625Z,32.20
2022-12-27T15:57:03.172Z,11.83
2022-12-27T15:59:48.144Z,22.77
2022-12-27T16:02:34.123Z,13.03
2022-12-27T16:05:01.108Z,6.60
2022-12-27T16:07:52.558Z,13.87
2022-12-27T16:10:31.962Z,6.67
2022-12-27T16:13:06.893Z,10.93
2022-12-27T16:15:55.439Z,10.43
2022-12-27T16:18:22.280Z,12.57
2022-12-27T16:21:27.595Z,14.77
2022-12-27T16:24:03.627Z,9.57
2022-12-27T16:26:35.783Z,11.50
2022-12-27T16:29:13.537Z,10.97
2022-12-27T16:31:49.530Z,12.07
2022-12-27T16:34:31.750Z,21.07
2022-12-27T16:37:00.774Z,10.20
2022-12-27T16:39:51.811Z,14.63
2022-12-27T16:42:28.576Z,15.43
2022-12-27T16:45:23.127Z,11.73
2022-12-27T16:48:11.024Z,25.50
2022-12-27T16:51:23.442Z,28.60
2022-12-27T16:54:16.716Z,10.13
2022-12-27T16:56:48.035Z,21.37
2022-12-27T17:00:07.417Z,7.20
2022-12-27T17:02:54.490Z,10.77
2022-12-27T17:05:36.366Z,10.97
2022-12-27T17:08:30.585Z,20.43
2022-12-27T17:11:28.285Z,20.00
2022-12-27T17:14:03.147Z,20.90
2022-12-27T17:16:44.265Z,14.33
2022-12-27T17:19:45.925Z,19.03
2022-12-27T17:22:15.944Z,24.57
2022-12-27T17:24:56.059Z,15.00
2022-12-27T17:27:38.801Z,19.60
2022-12-27T17:30:24.644Z,9.53
2022-12-27T17:33:26.274Z,19.23
2022-12-27T17:36:26.390Z,16.07
2022-12-27T17:39:08.710Z,20.90
2022-12-27T17:42:31.252Z,16.53
2022-12-27T17:45:38.281Z,15.73
2022-12-27T17:48:29.331Z,19.70
2022-12-27T17:51:05.384Z,19.17
2022-12-27T17:53:53.145Z,15.23
2022-12-27T17:57:02.574Z,15.70
2022-12-27T17:59:34.851Z,12.50
2022-12-27T18:02:12.408Z,16.87
2022-12-27T18:04:48.129Z,10.73
2022-12-27T18:07:22.905Z,17.00
2022-12-27T18:09:53.723Z,17.17
2022-12-27T18:12:54.020Z,15.27
2022-12-27T18:15:26.910Z,16.73
2022-12-27T18:18:09.788Z,10.30
2022-12-27T18:20:42.160Z,19.50
2022-12-27T18:23:17.667Z,19.07
2022-12-27T18:25:44.490Z,19.43
2022-12-27T18:28:49.125Z,12.27
2022-12-27T18:31:35.902Z,14.70
2022-12-27T18:34:19.144Z,25.70
2022-12-27T18:36:58.758Z,13.87
2022-12-27T18:39:29.904Z,18.43
2022-12-27T18:41:58.381Z,20.60
2022-12-27T18:44:54.120Z,17.07
2022-12-27T18:47:27.155Z,12.47
2022-12-27T18:50:03.337Z,18.63
2022-12-27T18:52:34.816Z,14.93
2022-12-27T18:55:28.967Z,15.10
2022-12-27T18:58:20.802Z,18.30
2022-12-27T19:00:59.087Z,10.10
2022-12-27T19:03:27.254Z,15.10
2022-12-27T19:06:04.743Z,15.70
2022-12-27T19:08:52.765Z,10.53
2022-12-27T19:11:29.428Z,11.07
2022-12-27T19:14:01.177Z,18.07
2022-12-27T19:16:34.371Z,27.50
2022-12-27T19:19:20.428Z,28.40
2022-12-27T19:21:49.581Z,13.93
2022-12-27T19:24:28.813Z,17.93
2022-12-27T19:27:00.735Z,21.43
2022-12-27T19:29:36.534Z,18.50
2022-12-27T19:32:11.907Z,25.13
2022-12-27T19:34:50.614Z,32.83
2022-12-27T19:37:18.177Z,23.20
2022-12-27T19:39:47.843Z,20.13
2022-12-27T19:42:30.808Z,17.20
2022-12-27T19:44:57.998Z,24.63
2022-12-27T19:47:29.002Z,25.83
2022-12-27T19:49:56.026Z,35.30
2022-12-27T19:52:27.106Z,31.07
2022-12-27T19:55:08.063Z,29.03
2022-12-27T19:57:35.121Z,37.77
2022-12-27T20:00:05.366Z,29.33
2022-12-27T20:02:38.676Z,27.80
2022-12-27T20:05:06.765Z,26.73
2022-12-27T20:07:39.394Z,32.03
2022-12-27T20:10:07.334Z,33.33
2022-12-27T20:12:38.747Z,29.33
2022-12-27T20:15:06.629Z,28.57
2022-12-27T20:17:41.051Z,29.70
2022-12-27T20:20:14.847Z,51.47
2022-12-27T20:22:42.596Z,32.80
2022-12-27T20:25:11.543Z,25.17
2022-12-27T20:27:42.937Z,27.00
2022-12-27T20:30:11.298Z,24.33
2022-12-27T20:32:39.966Z,34.00
2022-12-27T20:35:11.173Z,28.83
2022-12-27T20:37:39.458Z,33.83
2022-12-27T20:40:13.847Z,34.93
2022-12-27T20:42:41.384Z,22.13
2022-12-27T20:45:11.795Z,28.17
2022-12-27T20:47:40.733Z,36.30
2022-12-27T20:50:10.740Z,30.40
2022-12-27T20:52:39.156Z,35.40
2022-12-27T20:55:12.263Z,26.50
2022-12-27T20:57:39.739Z,39.90
2022-12-27T21:00:13.629Z,37.13
2022-12-27T21:02:43.062Z,30.00
2022-12-27T21:05:12.764Z,25.10
2022-12-27T21:07:39.692Z,44.00
2022-12-27T21:10:08.760Z,25.47
2022-12-27T21:12:42.401Z,19.20
2022-12-27T21:15:11.656Z,28.97
2022-12-27T21:17:39.209Z,31.03
2022-12-27T21:20:11.161Z,31.63
2022-12-27T21:22:40.339Z,28.60
2022-12-27T21:25:08.797Z,24.00
2022-12-27T21:27:36.789Z,18.77
2022-12-27T21:30:08.491Z,25.57
2022-12-27T21:32:37.004Z,27.43
2022-12-27T21:35:05.360Z,29.20
2022-12-27T21:37:32.804Z,20.97
2022-12-27T21:40:02.051Z,22.60
2022-12-27T21:42:28.938Z,24.27
2022-12-27T21:44:55.902Z,18.00
2022-12-27T21:47:23.412Z,18.27
2022-12-27T21:49:52.825Z,15.03
2022-12-27T21:52:19.717Z,14.07
2022-12-27T21:54:46.535Z,24.03
2022-12-27T21:57:13.451Z,21.23
2022-12-27T21:59:40.286Z,20.40
2022-12-27T22:02:08.739Z,23.10
2022-12-27T22:04:35.726Z,15.87
2022-12-27T22:07:02.653Z,10.60
2022-12-27T22:09:29.616Z,12.80
2022-12-27T22:11:56.819Z,18.50
2022-12-27T22:14:28.401Z,14.50
2022-12-27T22:17:00.635Z,13.03
2022-12-27T22:19:27.985Z,38.80
2022-12-27T22:21:54.976Z,17.30
2022-12-27T22:24:21.840Z,13.13
2022-12-27T22:26:50.132Z,12.27
2022-12-27T22:29:17.900Z,10.60
2022-12-27T22:31:45.073Z,14.63
2022-12-27T22:34:14.561Z,15.57
2022-12-27T22:36:41.431Z,19.73
2022-12-27T22:39:08.373Z,11.83
2022-12-27T22:41:39.100Z,15.97
2022-12-27T22:44:11.184Z,17.60
2022-12-27T22:47:06.869Z,15.30
2022-12-27T22:49:26.193Z,10.10
2022-12-27T22:51:53.650Z,9.40
2022-12-27T22:54:20.649Z,5.93
2022-12-27T22:57:10.860Z,16.07
2022-12-27T22:59:37.902Z,11.40
2022-12-27T23:02:05.209Z,7.83
2022-12-27T23:04:34.485Z,9.57
2022-12-27T23:07:02.185Z,5.03
2022-12-27T23:09:29.391Z,20.73
2022-12-27T23:11:56.606Z,5.93
2022-12-27T23:14:26.110Z,8.27
2022-12-27T23:16:53.104Z,3.97
2022-12-27T23:19:24.351Z,4.60
2022-12-27T23:21:53.593Z,10.10
2022-12-27T23:24:22.977Z,11.77
2022-12-27T23:26:49.877Z,6.00
2022-12-27T23:29:17.002Z,14.50
2022-12-27T23:31:54.944Z,3.70
2022-12-27T23:34:28.728Z,3.13
2022-12-27T23:36:58.052Z,9.90
2022-12-27T23:39:27.580Z,7.93
2022-12-27T23:41:55.240Z,10.63
2022-12-27T23:44:34.399Z,7.50
2022-12-27T23:47:07.247Z,2.73
2022-12-27T23:49:34.541Z,7.27
2022-12-27T23:52:04.196Z,5.30
2022-12-27T23:54:31.183Z,7.80
2022-12-27T23:57:22.274Z,2.67
2022-12-27T23:59:47.502Z,3.20
